KTAD/TAD METAR and TAF weather

Enter ICAO airport designator
Station Type Date Time Source
KTAD METAR 2020/04/05 15:54 UTC NOAA

KTAD 051554Z AUTO 27012G20KT 10SM CLR 18/M08 A2988 RMK AO2 SLP064 T01781078


Station Type Date Time Source
KTAD Decoded METAR 2020/04/05 15:54 UTC NOAA

Trinidad, Perry Stokes Airport, CO, United States (KTAD) 37-16N 104-26W
Apr 05, 2020 - 11:54 AM EDT / 2020.04.05 1554 UTC
Wind: from the W (270 degrees) at 14 MPH (12 KT) gusting to 23 MPH (20 KT):0
Visibility: 10 mile(s):0
Sky conditions: clear
Temperature: 64.0 F (17.8 C)
Dew Point: 18.0 F (-7.8 C)
Relative Humidity: 16%
Pressure (altimeter): 29.88 in. Hg (1011 hPa)
ob: KTAD 051554Z AUTO 27012G20KT 10SM CLR 18/M08 A2988 RMK AO2 SLP064 T01781078
cycle: 16

Station Type Date Time Source
KTAD TAF UTC NOAA

Error!

Example: see airport list